Terminal Aerodrome Forecast
Issued by NWS

Home | Current Version | Previous Version | Text Only | Print | Product List | Glossary On
Versions: 1 2 3 4 5 6 7 8 9 10 11 12
000
FTUS45 KABQ 301100
TAFFMN
TAF
KFMN 301120Z 3012/3112 09007KT P6SM SKC
     FM302000 26008KT P6SM SKC
     FM310600 09009KT P6SM SCT250=

USA.gov is the U.S. government's official web portal to all federal, state and local government web resources and services.